Elkhart, TX (75839)

9:16 AM CST on February 09, 2016 (GMT -0600)
H H Ranch | | Change Station
CLOSE
Current Station
Personal Weather Station
Location: Palestine, TX
Elevation: 436 ft
Nearby Weather Stations

Elev 436 ft 31.67 °N, 95.46 °W | Updated 2 seconds ago

Clear
Clear
43.3 °F
Feels Like 42 °F
N
3.6
Wind Variable Wind from West
Gusts 4.9 mph

Today
High -- | Low -- °F
--% Chance of Precip.
Yesterday
High -- | Low -- °F
Precip. -- in
Pressure 30.33 in
Visibility 10.0 miles
Clouds Clear
Windchill 42 °F
Dew Point 13 °F
Humidity 29%
Rainfall 0.00 in
Snow Depth Not available.
7:09 AM 6:03 PM
New Moon, 1% visible
METAR KPSN 091455Z AUTO 27005KT 10SM CLR 04/M05 A3033 RMK AO2 T00421053
Pressure 30.33 in
Visibility 10.0 miles
Clouds Clear
Windchill 42 °F
Dew Point 13 °F
Humidity 29%
Rainfall 0.00 in
Snow Depth Not available.
7:09 AM 6:03 PM
New Moon, 1% visible
METAR KPSN 091455Z AUTO 27005KT 10SM CLR 04/M05 A3033 RMK AO2 T00421053

10-Day Weather Forecast

Almanac

Astronomy

Feb. 09, 2016 Rise Set
Actual Time
Civil Twilight
Nautical Twilight
Astronomical Twilight
Moon
Length of Visible Light
Length of Day
Tomorrow will be .
, % of the Moon is Illuminated

Today's Extremes

State Highs State Lows

Community

WunderPhotos

Upload Photos

1,891,619 photos uploaded!

WunderBlog® & News

Nearby

Air Quality

  Air Quality AQ Index Pollutant
Not available.

Snow Depth

Station Depth Elevation

Earthquake Activity

City Distance Mag. Time & Date
Minimum magnitude displayed is 2.5.

Coastal Water Temperatures

Place Temperature

Stations

Nearby Weather Stations

Station Location Temp. Windchill Dew Point Humidity Wind Precip. Elev Updated Type
                   

Watches & Warnings

There are currently no watches in effect.